sensor_id;sensor_type;location;lat;lon;timestamp;pressure;altitude;pressure_sealevel;temperature;humidity
65666;BME280;52365;47.464;18.976;2023-12-04T00:00:07;100704.44;;;-2.88;69.44
65666;BME280;52365;47.464;18.976;2023-12-04T00:00:29;100706.88;;;-2.95;69.35
65666;BME280;52365;47.464;18.976;2023-12-04T00:00:50;100709.00;;;-3.01;69.33
65666;BME280;52365;47.464;18.976;2023-12-04T00:01:11;100707.87;;;-3.00;69.32
65666;BME280;52365;47.464;18.976;2023-12-04T00:01:28;100701.19;;;-2.97;69.29
65666;BME280;52365;47.464;18.976;2023-12-04T00:01:45;100710.28;;;-2.95;69.24
65666;BME280;52365;47.464;18.976;2023-12-04T00:02:06;100702.97;;;-2.86;69.16
65666;BME280;52365;47.464;18.976;2023-12-04T00:02:22;100702.97;;;-2.86;68.98
65666;BME280;52365;47.464;18.976;2023-12-04T00:02:38;100708.59;;;-2.87;68.93
65666;BME280;52365;47.464;18.976;2023-12-04T00:02:54;100703.47;;;-2.96;68.89
65666;BME280;52365;47.464;18.976;2023-12-04T00:03:15;100704.94;;;-2.98;68.98
65666;BME280;52365;47.464;18.976;2023-12-04T00:03:36;100707.56;;;-2.98;69.10
65666;BME280;52365;47.464;18.976;2023-12-04T00:03:52;100705.41;;;-3.09;69.24
65666;BME280;52365;47.464;18.976;2023-12-04T00:04:14;100704.75;;;-3.06;69.31
65666;BME280;52365;47.464;18.976;2023-12-04T00:04:30;100711.69;;;-3.13;69.47
65666;BME280;52365;47.464;18.976;2023-12-04T00:04:51;100696.62;;;-3.13;69.57
65666;BME280;52365;47.464;18.976;2023-12-04T00:05:12;100707.87;;;-3.16;69.66
65666;BME280;52365;47.464;18.976;2023-12-04T00:05:28;100701.50;;;-3.15;69.67
65666;BME280;52365;47.464;18.976;2023-12-04T00:05:49;100703.69;;;-3.17;69.65
65666;BME280;52365;47.464;18.976;2023-12-04T00:06:11;100709.78;;;-3.28;69.70
65666;BME280;52365;47.464;18.976;2023-12-04T00:06:32;100700.31;;;-3.30;69.83
65666;BME280;52365;47.464;18.976;2023-12-04T00:06:48;100704.75;;;-3.06;69.83
65666;BME280;52365;47.464;18.976;2023-12-04T00:07:04;100707.22;;;-2.97;69.65
65666;BME280;52365;47.464;18.976;2023-12-04T00:07:25;100701.75;;;-3.04;69.59
65666;BME280;52365;47.464;18.976;2023-12-04T00:07:46;100699.75;;;-3.23;69.72
65666;BME280;52365;47.464;18.976;2023-12-04T00:08:07;100696.31;;;-3.39;69.90
65666;BME280;52365;47.464;18.976;2023-12-04T00:08:23;100701.28;;;-3.50;70.18
65666;BME280;52365;47.464;18.976;2023-12-04T00:08:45;100703.94;;;-3.50;70.30
65666;BME280;52365;47.464;18.976;2023-12-04T00:09:06;100699.38;;;-3.37;70.43
65666;BME280;52365;47.464;18.976;2023-12-04T00:09:27;100699.03;;;-3.36;70.38
65666;BME280;52365;47.464;18.976;2023-12-04T00:09:48;100706.81;;;-3.27;70.32
65666;BME280;52365;47.464;18.976;2023-12-04T00:10:09;100707.53;;;-3.14;70.10
65666;BME280;52365;47.464;18.976;2023-12-04T00:10:31;100694.59;;;-3.19;70.00
65666;BME280;52365;47.464;18.976;2023-12-04T00:10:52;100705.91;;;-3.19;69.92
65666;BME280;52365;47.464;18.976;2023-12-04T00:11:15;100703.41;;;-3.27;69.87
65666;BME280;52365;47.464;18.976;2023-12-04T00:11:36;100704.06;;;-3.31;69.84
65666;BME280;52365;47.464;18.976;2023-12-04T00:11:52;100705.28;;;-3.28;69.85
65666;BME280;52365;47.464;18.976;2023-12-04T00:12:13;100699.50;;;-3.18;69.82
65666;BME280;52365;47.464;18.976;2023-12-04T00:12:29;100705.31;;;-3.12;69.66
65666;BME280;52365;47.464;18.976;2023-12-04T00:12:50;100704.22;;;-3.11;69.57
65666;BME280;52365;47.464;18.976;2023-12-04T00:13:07;100698.41;;;-3.17;69.46
65666;BME280;52365;47.464;18.976;2023-12-04T00:13:28;100700.47;;;-3.10;69.44
65666;BME280;52365;47.464;18.976;2023-12-04T00:13:49;100709.50;;;-3.11;69.34
65666;BME280;52365;47.464;18.976;2023-12-04T00:14:10;100710.69;;;-3.09;69.30
65666;BME280;52365;47.464;18.976;2023-12-04T00:14:31;100707.72;;;-3.07;69.22
65666;BME280;52365;47.464;18.976;2023-12-04T00:14:52;100707.63;;;-3.11;69.12
65666;BME280;52365;47.464;18.976;2023-12-04T00:15:08;100707.87;;;-3.16;69.09
65666;BME280;52365;47.464;18.976;2023-12-04T00:15:30;100704.87;;;-3.14;69.17
65666;BME280;52365;47.464;18.976;2023-12-04T00:15:46;100703.12;;;-3.10;69.15
65666;BME280;52365;47.464;18.976;2023-12-04T00:16:07;100710.56;;;-3.12;69.16
65666;BME280;52365;47.464;18.976;2023-12-04T00:16:28;100706.84;;;-3.11;69.10
65666;BME280;52365;47.464;18.976;2023-12-04T00:16:49;100705.00;;;-3.11;69.11
65666;BME280;52365;47.464;18.976;2023-12-04T00:17:10;100699.09;;;-3.20;69.29
65666;BME280;52365;47.464;18.976;2023-12-04T00:17:31;100709.34;;;-3.31;69.67
65666;BME280;52365;47.464;18.976;2023-12-04T00:17:52;100697.53;;;-3.21;69.68
65666;BME280;52365;47.464;18.976;2023-12-04T00:18:13;100712.59;;;-3.21;69.70
65666;BME280;52365;47.464;18.976;2023-12-04T00:18:34;100713.66;;;-3.10;69.58
65666;BME280;52365;47.464;18.976;2023-12-04T00:18:50;100700.47;;;-3.10;69.62
65666;BME280;52365;47.464;18.976;2023-12-04T00:19:06;100706.62;;;-3.06;69.51
65666;BME280;52365;47.464;18.976;2023-12-04T00:19:27;100708.56;;;-3.03;69.45
65666;BME280;52365;47.464;18.976;2023-12-04T00:19:48;100704.13;;;-2.99;69.36
65666;BME280;52365;47.464;18.976;2023-12-04T00:20:09;100714.28;;;-3.01;69.31
65666;BME280;52365;47.464;18.976;2023-12-04T00:20:31;100713.16;;;-3.16;69.39
65666;BME280;52365;47.464;18.976;2023-12-04T00:20:47;100703.41;;;-3.27;69.53
65666;BME280;52365;47.464;18.976;2023-12-04T00:21:08;100708.56;;;-3.31;69.74
65666;BME280;52365;47.464;18.976;2023-12-04T00:21:29;100704.16;;;-3.27;69.82
65666;BME280;52365;47.464;18.976;2023-12-04T00:21:50;100713.66;;;-3.38;70.01
65666;BME280;52365;47.464;18.976;2023-12-04T00:22:11;100707.91;;;-3.28;70.03
65666;BME280;52365;47.464;18.976;2023-12-04T00:22:32;100707.66;;;-3.23;69.95
65666;BME280;52365;47.464;18.976;2023-12-04T00:22:53;100706.91;;;-3.23;69.85
65666;BME280;52365;47.464;18.976;2023-12-04T00:23:15;100707.91;;;-3.28;69.88
65666;BME280;52365;47.464;18.976;2023-12-04T00:23:36;100708.06;;;-3.37;69.96
65666;BME280;52365;47.464;18.976;2023-12-04T00:23:57;100704.56;;;-3.41;70.03
65666;BME280;52365;47.464;18.976;2023-12-04T00:24:18;100709.16;;;-3.38;70.10
65666;BME280;52365;47.464;18.976;2023-12-04T00:24:39;100703.97;;;-3.34;70.14
65666;BME280;52365;47.464;18.976;2023-12-04T00:25:00;100702.94;;;-3.45;70.21
65666;BME280;52365;47.464;18.976;2023-12-04T00:25:21;100697.97;;;-3.47;70.29
65666;BME280;52365;47.464;18.976;2023-12-04T00:25:42;100704.34;;;-3.48;70.41
65666;BME280;52365;47.464;18.976;2023-12-04T00:25:59;100702.88;;;-3.33;70.34
65666;BME280;52365;47.464;18.976;2023-12-04T00:26:20;100705.66;;;-3.42;70.29
65666;BME280;52365;47.464;18.976;2023-12-04T00:26:41;100702.03;;;-3.37;70.24
65666;BME280;52365;47.464;18.976;2023-12-04T00:27:02;100702.69;;;-3.40;70.18
65666;BME280;52365;47.464;18.976;2023-12-04T00:27:23;100697.28;;;-3.32;70.13
65666;BME280;52365;47.464;18.976;2023-12-04T00:27:47;100697.94;;;-3.35;70.06
65666;BME280;52365;47.464;18.976;2023-12-04T00:28:08;100701.69;;;-3.36;70.09
65666;BME280;52365;47.464;18.976;2023-12-04T00:28:29;100703.22;;;-3.35;70.05
65666;BME280;52365;47.464;18.976;2023-12-04T00:28:50;100699.72;;;-3.39;70.04
65666;BME280;52365;47.464;18.976;2023-12-04T00:29:11;100707.84;;;-3.44;70.05
65666;BME280;52365;47.464;18.976;2023-12-04T00:29:27;100703.22;;;-3.35;70.05
65666;BME280;52365;47.464;18.976;2023-12-04T00:29:48;100693.44;;;-3.34;70.01
65666;BME280;52365;47.464;18.976;2023-12-04T00:30:05;100696.31;;;-3.39;70.10
65666;BME280;52365;47.464;18.976;2023-12-04T00:30:26;100701.81;;;-3.44;70.10
65666;BME280;52365;47.464;18.976;2023-12-04T00:30:47;100700.59;;;-3.47;70.10
65666;BME280;52365;47.464;18.976;2023-12-04T00:31:09;100701.28;;;-3.50;70.24
65666;BME280;52365;47.464;18.976;2023-12-04T00:31:31;100701.06;;;-3.45;70.24
65666;BME280;52365;47.464;18.976;2023-12-04T00:31:47;100706.44;;;-3.41;70.20
65666;BME280;52365;47.464;18.976;2023-12-04T00:32:04;100704.72;;;-3.34;70.11
65666;BME280;52365;47.464;18.976;2023-12-04T00:32:25;100703.41;;;-3.27;70.01
65666;BME280;52365;47.464;18.976;2023-12-04T00:32:41;100706.91;;;-3.23;69.84
65666;BME280;52365;47.464;18.976;2023-12-04T00:33:02;100707.56;;;-3.26;69.80
65666;BME280;52365;47.464;18.976;2023-12-04T00:33:23;100707.16;;;-3.28;69.76
65666;BME280;52365;47.464;18.976;2023-12-04T00:33:44;100700.53;;;-3.22;69.68
65666;BME280;52365;47.464;18.976;2023-12-04T00:34:05;100711.31;;;-3.27;69.64
65666;BME280;52365;47.464;18.976;2023-12-04T00:34:26;100709.44;;;-3.27;69.64
65666;BME280;52365;47.464;18.976;2023-12-04T00:34:47;100708.19;;;-3.17;69.58
65666;BME280;52365;47.464;18.976;2023-12-04T00:35:09;100704.53;;;-3.13;69.44
65666;BME280;52365;47.464;18.976;2023-12-04T00:35:30;100711.53;;;-3.05;69.28
65666;BME280;52365;47.464;18.976;2023-12-04T00:35:46;100711.44;;;-3.08;69.20
65666;BME280;52365;47.464;18.976;2023-12-04T00:36:07;100709.34;;;-3.02;69.11
65666;BME280;52365;47.464;18.976;2023-12-04T00:36:24;100700.88;;;-3.08;69.06
65666;BME280;52365;47.464;18.976;2023-12-04T00:36:45;100707.44;;;-3.18;69.08
65666;BME280;52365;47.464;18.976;2023-12-04T00:37:06;100712.84;;;-3.26;nan
65666;BME280;52365;47.464;18.976;2023-12-04T00:37:27;100705.28;;;-3.28;69.20
65666;BME280;52365;47.464;18.976;2023-12-04T00:37:48;100709.97;;;-3.21;69.26
65666;BME280;52365;47.464;18.976;2023-12-04T00:38:04;100702.16;;;-3.18;69.23
65666;BME280;52365;47.464;18.976;2023-12-04T00:38:20;100709.78;;;-3.28;69.26
65666;BME280;52365;47.464;18.976;2023-12-04T00:38:41;100704.28;;;-3.23;69.28
65666;BME280;52365;47.464;18.976;2023-12-04T00:39:02;100703.88;;;-3.10;69.25
65666;BME280;52365;47.464;18.976;2023-12-04T00:39:24;100712.34;;;-3.16;69.21
65666;BME280;52365;47.464;18.976;2023-12-04T00:39:45;100705.91;;;-3.19;69.18
65666;BME280;52365;47.464;18.976;2023-12-04T00:40:07;100707.81;;;-3.32;69.26
65666;BME280;52365;47.464;18.976;2023-12-04T00:40:28;100703.41;;;-3.27;69.37
65666;BME280;52365;47.464;18.976;2023-12-04T00:40:49;100702.75;;;-3.24;69.38
65666;BME280;52365;47.464;18.976;2023-12-04T00:41:11;100704.41;;;-3.32;69.42
65666;BME280;52365;47.464;18.976;2023-12-04T00:41:32;100701.34;;;-3.34;69.52
65666;BME280;52365;47.464;18.976;2023-12-04T00:41:53;100709.44;;;-3.27;69.52
65666;BME280;52365;47.464;18.976;2023-12-04T00:42:14;100704.06;;;-3.31;69.47
65666;BME280;52365;47.464;18.976;2023-12-04T00:42:35;100697.00;;;-3.42;69.55
65666;BME280;52365;47.464;18.976;2023-12-04T00:42:51;100698.53;;;-3.41;69.68
65666;BME280;52365;47.464;18.976;2023-12-04T00:43:12;100707.44;;;-3.46;69.76
65666;BME280;52365;47.464;18.976;2023-12-04T00:43:33;100707.53;;;-3.42;69.87
65666;BME280;52365;47.464;18.976;2023-12-04T00:43:54;100702.66;;;-3.28;69.82
65666;BME280;52365;47.464;18.976;2023-12-04T00:44:15;100712.59;;;-3.21;69.72
65666;BME280;52365;47.464;18.976;2023-12-04T00:44:36;100706.75;;;-3.15;69.57
65666;BME280;52365;47.464;18.976;2023-12-04T00:44:57;100704.38;;;-3.20;69.46
65666;BME280;52365;47.464;18.976;2023-12-04T00:45:18;100702.91;;;-3.17;69.37
65666;BME280;52365;47.464;18.976;2023-12-04T00:45:39;100707.31;;;-3.21;69.33
65666;BME280;52365;47.464;18.976;2023-12-04T00:46:00;100704.44;;;-3.16;69.31
65666;BME280;52365;47.464;18.976;2023-12-04T00:46:21;100701.19;;;-3.25;69.29
65666;BME280;52365;47.464;18.976;2023-12-04T00:46:42;100704.41;;;-3.32;69.38
65666;BME280;52365;47.464;18.976;2023-12-04T00:47:04;100712.44;;;-3.28;69.45
65666;BME280;52365;47.464;18.976;2023-12-04T00:47:25;100702.06;;;-3.21;69.45
65666;BME280;52365;47.464;18.976;2023-12-04T00:47:46;100704.53;;;-3.28;69.43
65666;BME280;52365;47.464;18.976;2023-12-04T00:48:07;100700.56;;;-3.35;69.44
65666;BME280;52365;47.464;18.976;2023-12-04T00:48:28;100707.63;;;-3.39;69.47
65666;BME280;52365;47.464;18.976;2023-12-04T00:48:49;100700.59;;;-3.47;69.59
65666;BME280;52365;47.464;18.976;2023-12-04T00:49:10;100701.28;;;-3.50;69.75
65666;BME280;52365;47.464;18.976;2023-12-04T00:49:31;100700.56;;;-3.63;69.96
65666;BME280;52365;47.464;18.976;2023-12-04T00:49:52;100703.31;;;-3.59;70.09
65666;BME280;52365;47.464;18.976;2023-12-04T00:50:14;100702.63;;;-3.56;70.17
65666;BME280;52365;47.464;18.976;2023-12-04T00:50:35;100699.78;;;-3.51;70.15
65666;BME280;52365;47.464;18.976;2023-12-04T00:50:57;100706.56;;;-3.50;70.09
65666;BME280;52365;47.464;18.976;2023-12-04T00:51:18;100709.06;;;-3.41;70.01
65666;BME280;52365;47.464;18.976;2023-12-04T00:51:39;100703.16;;;-3.50;69.94
65666;BME280;52365;47.464;18.976;2023-12-04T00:52:00;100698.91;;;-3.55;70.01
65666;BME280;52365;47.464;18.976;2023-12-04T00:52:16;100698.66;;;-3.50;70.05
65666;BME280;52365;47.464;18.976;2023-12-04T00:52:37;100701.41;;;-3.46;70.04
65666;BME280;52365;47.464;18.976;2023-12-04T00:52:53;100694.06;;;-3.53;70.08
65666;BME280;52365;47.464;18.976;2023-12-04T00:53:15;100705.25;;;-3.56;70.17
65666;BME280;52365;47.464;18.976;2023-12-04T00:53:36;100707.87;;;-3.56;70.15
65666;BME280;52365;47.464;18.976;2023-12-04T00:53:57;100702.19;;;-3.58;70.16
65666;BME280;52365;47.464;18.976;2023-12-04T00:54:18;100707.03;;;-3.60;70.18
65666;BME280;52365;47.464;18.976;2023-12-04T00:54:34;100701.63;;;-3.51;70.14
65666;BME280;52365;47.464;18.976;2023-12-04T00:54:55;100702.16;;;-3.46;70.06
65666;BME280;52365;47.464;18.976;2023-12-04T00:55:11;100698.41;;;-3.45;69.95
65666;BME280;52365;47.464;18.976;2023-12-04T00:55:32;100704.66;;;-3.37;69.87
65666;BME280;52365;47.464;18.976;2023-12-04T00:55:53;100701.69;;;-3.36;69.74
65666;BME280;52365;47.464;18.976;2023-12-04T00:56:14;100701.19;;;-3.25;69.56
65666;BME280;52365;47.464;18.976;2023-12-04T00:56:38;100701.78;;;-3.32;69.39
65666;BME280;52365;47.464;18.976;2023-12-04T00:57:00;100694.87;;;-3.37;69.33
65666;BME280;52365;47.464;18.976;2023-12-04T00:57:21;100693.44;;;-3.34;69.34
65666;BME280;52365;47.464;18.976;2023-12-04T00:57:42;100699.81;;;-3.35;69.31
65666;BME280;52365;47.464;18.976;2023-12-04T00:58:03;100704.97;;;-3.39;69.30
65666;BME280;52365;47.464;18.976;2023-12-04T00:58:24;100699.03;;;-3.36;69.32
65666;BME280;52365;47.464;18.976;2023-12-04T00:58:45;100704.06;;;-3.31;69.29
65666;BME280;52365;47.464;18.976;2023-12-04T00:59:09;100706.47;;;-3.25;69.19
65666;BME280;52365;47.464;18.976;2023-12-04T00:59:30;100709.53;;;-3.23;69.12
65666;BME280;52365;47.464;18.976;2023-12-04T00:59:51;100702.53;;;-3.32;69.01
65666;BME280;52365;47.464;18.976;2023-12-04T01:00:12;100703.66;;;-3.33;69.06
65666;BME280;52365;47.464;18.976;2023-12-04T01:00:33;100706.94;;;-3.36;69.07
65666;BME280;52365;47.464;18.976;2023-12-04T01:00:55;100705.41;;;-3.37;69.08
65666;BME280;52365;47.464;18.976;2023-12-04T01:01:12;100705.41;;;-3.37;69.15
65666;BME280;52365;47.464;18.976;2023-12-04T01:01:37;100692.56;;;-3.38;69.15
65666;BME280;52365;47.464;18.976;2023-12-04T01:01:58;100694.44;;;-3.39;69.18
65666;BME280;52365;47.464;18.976;2023-12-04T01:02:19;100697.50;;;-3.37;69.20
65666;BME280;52365;47.464;18.976;2023-12-04T01:02:40;100700.06;;;-3.40;69.22
65666;BME280;52365;47.464;18.976;2023-12-04T01:03:01;100700.66;;;-3.31;69.19
65666;BME280;52365;47.464;18.976;2023-12-04T01:03:22;100701.25;;;-3.38;69.18
65666;BME280;52365;47.464;18.976;2023-12-04T01:03:43;100699.94;;;-3.44;69.15
65666;BME280;52365;47.464;18.976;2023-12-04T01:04:05;100695.75;;;-3.33;69.17
65666;BME280;52365;47.464;18.976;2023-12-04T01:04:26;100700.59;;;-3.47;69.28
65666;BME280;52365;47.464;18.976;2023-12-04T01:04:47;100693.91;;;-3.44;69.31
65666;BME280;52365;47.464;18.976;2023-12-04T01:05:08;100699.62;;;-3.42;69.31
65666;BME280;52365;47.464;18.976;2023-12-04T01:05:29;100689.91;;;-3.54;69.35
65666;BME280;52365;47.464;18.976;2023-12-04T01:05:50;100696.69;;;-3.53;69.52
65666;BME280;52365;47.464;18.976;2023-12-04T01:06:22;100695.78;;;-3.45;69.52
65666;BME280;52365;47.464;18.976;2023-12-04T01:06:44;100700.09;;;-3.52;69.56
65666;BME280;52365;47.464;18.976;2023-12-04T01:07:05;100695.41;;;-3.59;69.61
65666;BME280;52365;47.464;18.976;2023-12-04T01:07:26;100696.81;;;-3.62;69.79
65666;BME280;52365;47.464;18.976;2023-12-04T01:07:47;100696.47;;;-3.60;69.90
65666;BME280;52365;47.464;18.976;2023-12-04T01:08:09;100692.06;;;-3.56;69.86
65666;BME280;52365;47.464;18.976;2023-12-04T01:08:30;100698.22;;;-3.52;69.79
65666;BME280;52365;47.464;18.976;2023-12-04T01:08:53;100692.00;;;-3.60;69.92
65666;BME280;52365;47.464;18.976;2023-12-04T01:09:14;100698.69;;;-3.62;70.03
65666;BME280;52365;47.464;18.976;2023-12-04T01:09:36;100695.94;;;-3.53;69.97
65666;BME280;52365;47.464;18.976;2023-12-04T01:09:57;100696.44;;;-3.48;69.89
65666;BME280;52365;47.464;18.976;2023-12-04T01:10:18;100698.41;;;-3.45;69.81
65666;BME280;52365;47.464;18.976;2023-12-04T01:10:40;100700.59;;;-3.47;69.78
65666;BME280;52365;47.464;18.976;2023-12-04T01:10:56;100689.03;;;-3.58;69.88
65666;BME280;52365;47.464;18.976;2023-12-04T01:11:17;100695.81;;;-3.57;69.90
65666;BME280;52365;47.464;18.976;2023-12-04T01:11:40;100692.19;;;-3.52;69.88
65666;BME280;52365;47.464;18.976;2023-12-04T01:12:01;100691.41;;;-3.53;69.90
65666;BME280;52365;47.464;18.976;2023-12-04T01:12:22;100693.63;;;-3.55;69.93
65666;BME280;52365;47.464;18.976;2023-12-04T01:12:43;100689.69;;;-3.61;70.05
65666;BME280;52365;47.464;18.976;2023-12-04T01:13:04;100687.28;;;-3.66;70.10
65666;BME280;52365;47.464;18.976;2023-12-04T01:13:26;100698.28;;;-3.64;70.19
65666;BME280;52365;47.464;18.976;2023-12-04T01:13:47;100695.72;;;-3.61;70.19
65666;BME280;52365;47.464;18.976;2023-12-04T01:14:09;100693.53;;;-3.59;70.15
65666;BME280;52365;47.464;18.976;2023-12-04T01:14:30;100691.31;;;-3.57;70.12
65666;BME280;52365;47.464;18.976;2023-12-04T01:14:46;100693.84;;;-3.60;70.14
65666;BME280;52365;47.464;18.976;2023-12-04T01:15:07;100687.94;;;-3.69;70.33
65666;BME280;52365;47.464;18.976;2023-12-04T01:15:28;100693.97;;;-3.69;70.37
65666;BME280;52365;47.464;18.976;2023-12-04T01:15:49;100695.97;;;-3.66;70.44
65666;BME280;52365;47.464;18.976;2023-12-04T01:16:11;100699.03;;;-3.64;70.46
65666;BME280;52365;47.464;18.976;2023-12-04T01:16:32;100693.22;;;-3.69;70.61
65666;BME280;52365;47.464;18.976;2023-12-04T01:16:48;100691.44;;;-3.65;70.56
65666;BME280;52365;47.464;18.976;2023-12-04T01:17:09;100699.56;;;-3.58;70.49
65666;BME280;52365;47.464;18.976;2023-12-04T01:17:30;100695.63;;;-3.64;70.46
65666;BME280;52365;47.464;18.976;2023-12-04T01:17:52;100692.59;;;-3.78;70.64
65666;BME280;52365;47.464;18.976;2023-12-04T01:18:13;100689.75;;;-3.86;70.79
65666;BME280;52365;47.464;18.976;2023-12-04T01:18:34;100698.31;;;-3.89;70.89
65666;BME280;52365;47.464;18.976;2023-12-04T01:18:50;100687.44;;;-3.87;71.00
65666;BME280;52365;47.464;18.976;2023-12-04T01:19:11;100691.19;;;-3.88;70.97
65666;BME280;52365;47.464;18.976;2023-12-04T01:19:32;100696.66;;;-3.81;70.98
65666;BME280;52365;47.464;18.976;2023-12-04T01:19:53;100695.84;;;-3.69;70.91
65666;BME280;52365;47.464;18.976;2023-12-04T01:20:14;100696.47;;;-3.60;70.75
65666;BME280;52365;47.464;18.976;2023-12-04T01:20:31;100699.97;;;-3.56;70.60
65666;BME280;52365;47.464;18.976;2023-12-04T01:20:54;100699.22;;;-3.57;70.50
65666;BME280;52365;47.464;18.976;2023-12-04T01:21:15;100696.28;;;-3.55;70.41
65666;BME280;52365;47.464;18.976;2023-12-04T01:21:36;100701.75;;;-3.60;70.42
65666;BME280;52365;47.464;18.976;2023-12-04T01:21:57;100693.63;;;-3.55;70.40
65666;BME280;52365;47.464;18.976;2023-12-04T01:22:18;100696.69;;;-3.53;70.39
65666;BME280;52365;47.464;18.976;2023-12-04T01:22:39;100701.28;;;-3.50;70.36
65666;BME280;52365;47.464;18.976;2023-12-04T01:23:00;100705.47;;;-3.49;70.33
65666;BME280;52365;47.464;18.976;2023-12-04T01:23:16;100706.94;;;-3.64;70.55
65666;BME280;52365;47.464;18.976;2023-12-04T01:23:37;100695.97;;;-3.66;70.58
65666;BME280;52365;47.464;18.976;2023-12-04T01:23:58;100696.47;;;-3.60;70.60
65666;BME280;52365;47.464;18.976;2023-12-04T01:24:19;100710.34;;;-3.63;70.60
65666;BME280;52365;47.464;18.976;2023-12-04T01:24:40;100703.09;;;-3.66;70.63
65666;BME280;52365;47.464;18.976;2023-12-04T01:24:56;100698.69;;;-3.62;70.64
65666;BME280;52365;47.464;18.976;2023-12-04T01:25:18;100700.22;;;-3.61;70.61
65666;BME280;52365;47.464;18.976;2023-12-04T01:25:39;100704.91;;;-3.42;70.45
65666;BME280;52365;47.464;18.976;2023-12-04T01:26:01;100705.75;;;-3.38;70.25
65666;BME280;52365;47.464;18.976;2023-12-04T01:26:22;100710.06;;;-3.46;70.14
65666;BME280;52365;47.464;18.976;2023-12-04T01:26:44;100716.22;;;-3.42;70.07
65666;BME280;52365;47.464;18.976;2023-12-04T01:27:05;100709.19;;;-3.50;70.22
65666;BME280;52365;47.464;18.976;2023-12-04T01:27:21;100709.44;;;-3.55;70.24
65666;BME280;52365;47.464;18.976;2023-12-04T01:27:37;100705.25;;;-3.56;70.27
65666;BME280;52365;47.464;18.976;2023-12-04T01:27:59;100717.12;;;-3.62;70.34
65666;BME280;52365;47.464;18.976;2023-12-04T01:28:20;100713.84;;;-3.59;70.38
65666;BME280;52365;47.464;18.976;2023-12-04T01:28:41;100710.97;;;-3.54;70.38
65666;BME280;52365;47.464;18.976;2023-12-04T01:29:03;100711.16;;;-3.47;70.29
65666;BME280;52365;47.464;18.976;2023-12-04T01:29:19;100711.72;;;-3.53;70.19
65666;BME280;52365;47.464;18.976;2023-12-04T01:29:40;100713.16;;;-3.56;70.25
65666;BME280;52365;47.464;18.976;2023-12-04T01:30:01;100716.25;;;-3.54;70.32
65666;BME280;52365;47.464;18.976;2023-12-04T01:30:22;100714.47;;;-3.50;70.30
65666;BME280;52365;47.464;18.976;2023-12-04T01:30:44;100718.44;;;-3.56;70.32
65666;BME280;52365;47.464;18.976;2023-12-04T01:31:05;100717.56;;;-3.60;70.34
65666;BME280;52365;47.464;18.976;2023-12-04T01:31:26;100723.03;;;-3.53;70.39
65666;BME280;52365;47.464;18.976;2023-12-04T01:31:48;100714.91;;;-3.48;70.39
65666;BME280;52365;47.464;18.976;2023-12-04T01:32:09;100719.50;;;-3.45;70.33
65666;BME280;52365;47.464;18.976;2023-12-04T01:32:30;100722.75;;;-3.36;70.20
65666;BME280;52365;47.464;18.976;2023-12-04T01:32:51;100719.16;;;-3.43;70.18
65666;BME280;52365;47.464;18.976;2023-12-04T01:33:07;100724.97;;;-3.38;70.14
65666;BME280;52365;47.464;18.976;2023-12-04T01:33:30;100715.44;;;-3.42;70.12
65666;BME280;52365;47.464;18.976;2023-12-04T01:33:51;100718.59;;;-3.37;70.13
65666;BME280;52365;47.464;18.976;2023-12-04T01:34:07;100721.91;;;-3.40;70.09
65666;BME280;52365;47.464;18.976;2023-12-04T01:34:28;100724.87;;;-3.41;70.15
65666;BME280;52365;47.464;18.976;2023-12-04T01:34:49;100724.19;;;-3.38;70.10
65666;BME280;52365;47.464;18.976;2023-12-04T01:35:05;100723.00;;;-3.41;70.07
65666;BME280;52365;47.464;18.976;2023-12-04T01:35:27;100714.56;;;-3.46;70.14
65666;BME280;52365;47.464;18.976;2023-12-04T01:35:43;100717.66;;;-3.57;70.28
65666;BME280;52365;47.464;18.976;2023-12-04T01:36:04;100717.44;;;-3.51;70.41
65666;BME280;52365;47.464;18.976;2023-12-04T01:36:25;100720.62;;;-3.46;70.46
65666;BME280;52365;47.464;18.976;2023-12-04T01:36:46;100726.75;;;-3.42;70.42
65666;BME280;52365;47.464;18.976;2023-12-04T01:37:08;100718.22;;;-3.51;70.59
65666;BME280;52365;47.464;18.976;2023-12-04T01:37:29;100721.50;;;-3.54;70.67
65666;BME280;52365;47.464;18.976;2023-12-04T01:37:45;100723.12;;;-3.49;70.66
65666;BME280;52365;47.464;18.976;2023-12-04T01:38:06;100725.44;;;-3.48;70.63
65666;BME280;52365;47.464;18.976;2023-12-04T01:38:28;100717.88;;;-3.49;70.61
65666;BME280;52365;47.464;18.976;2023-12-04T01:38:49;100728.50;;;-3.46;70.56
65666;BME280;52365;47.464;18.976;2023-12-04T01:39:11;100720.62;;;-3.46;70.54
65666;BME280;52365;47.464;18.976;2023-12-04T01:39:32;100725.63;;;-3.41;70.46
65666;BME280;52365;47.464;18.976;2023-12-04T01:39:53;100728.06;;;-3.48;70.46
65666;BME280;52365;47.464;18.976;2023-12-04T01:40:09;100721.25;;;-3.37;70.40
65666;BME280;52365;47.464;18.976;2023-12-04T01:40:30;100728.28;;;-3.41;70.42
65666;BME280;52365;47.464;18.976;2023-12-04T01:40:51;100729.38;;;-3.42;70.43
65666;BME280;52365;47.464;18.976;2023-12-04T01:41:13;100724.78;;;-3.45;70.46
65666;BME280;52365;47.464;18.976;2023-12-04T01:41:34;100721.66;;;-3.35;70.37
65666;BME280;52365;47.464;18.976;2023-12-04T01:41:55;100731.78;;;-3.37;70.33
65666;BME280;52365;47.464;18.976;2023-12-04T01:42:16;100723.25;;;-3.46;70.36
65666;BME280;52365;47.464;18.976;2023-12-04T01:42:37;100724.97;;;-3.38;70.35
65666;BME280;52365;47.464;18.976;2023-12-04T01:42:58;100723.25;;;-3.46;70.38
65666;BME280;52365;47.464;18.976;2023-12-04T01:43:19;100718.75;;;-3.45;70.47
65666;BME280;52365;47.464;18.976;2023-12-04T01:43:35;100719.72;;;-3.38;70.42
65666;BME280;52365;47.464;18.976;2023-12-04T01:43:56;100728.94;;;-3.44;70.40
65666;BME280;52365;47.464;18.976;2023-12-04T01:44:17;100723.03;;;-3.53;70.59
65666;BME280;52365;47.464;18.976;2023-12-04T01:44:33;100724.13;;;-3.42;70.58
65666;BME280;52365;47.464;18.976;2023-12-04T01:44:54;100727.63;;;-3.38;70.51
65666;BME280;52365;47.464;18.976;2023-12-04T01:45:15;100721.25;;;-3.37;70.48